createdAt,value
2018-01-29T00:00:48.051Z,125.73
2018-01-29T00:03:15.862Z,113.13
2018-01-29T00:05:43.478Z,92.53
2018-01-29T00:08:11.014Z,88.17
2018-01-29T00:10:38.600Z,91.67
2018-01-29T00:13:06.304Z,107.03
2018-01-29T00:15:33.955Z,112.13
2018-01-29T00:18:01.506Z,106.80
2018-01-29T00:20:29.046Z,89.63
2018-01-29T00:22:56.675Z,88.80
2018-01-29T00:25:24.201Z,94.87
2018-01-29T00:27:51.777Z,82.23
2018-01-29T00:30:19.343Z,83.37
2018-01-29T00:32:46.979Z,96.73
2018-01-29T00:35:14.562Z,77.00
2018-01-29T00:37:42.102Z,82.67
2018-01-29T00:40:09.730Z,82.47
2018-01-29T00:42:37.336Z,82.67
2018-01-29T00:45:04.873Z,86.63
2018-01-29T00:47:32.469Z,85.67
2018-01-29T00:50:00.006Z,84.83
2018-01-29T00:52:27.628Z,84.73
2018-01-29T00:54:55.174Z,85.37
2018-01-29T00:57:22.718Z,86.97
2018-01-29T00:59:50.316Z,85.83
2018-01-29T01:02:17.858Z,87.47
2018-01-29T01:04:45.804Z,118.97
2018-01-29T01:07:13.378Z,112.97
2018-01-29T01:09:40.914Z,94.77
2018-01-29T01:12:08.502Z,72.17
2018-01-29T01:14:36.043Z,97.30
2018-01-29T01:17:03.602Z,77.70
2018-01-29T01:19:31.149Z,77.97
2018-01-29T01:21:58.686Z,94.30
2018-01-29T01:24:26.262Z,89.90
2018-01-29T01:26:53.801Z,88.97
2018-01-29T01:29:21.582Z,91.90
2018-01-29T01:31:49.202Z,90.93
2018-01-29T01:34:16.737Z,89.73
2018-01-29T01:36:44.438Z,75.13
2018-01-29T01:39:12.054Z,75.87
2018-01-29T01:41:39.585Z,89.00
2018-01-29T01:44:07.169Z,78.23
2018-01-29T01:46:34.746Z,73.23
2018-01-29T01:49:02.333Z,73.10
2018-01-29T01:51:30.051Z,78.73
2018-01-29T01:53:57.590Z,73.93
2018-01-29T01:56:25.168Z,69.33
2018-01-29T01:58:52.763Z,79.73
2018-01-29T02:01:20.333Z,73.03
2018-01-29T02:03:47.874Z,68.63
2018-01-29T02:06:15.458Z,68.47
2018-01-29T02:08:42.995Z,73.33
2018-01-29T02:11:10.785Z,73.63
2018-01-29T02:13:38.326Z,74.30
2018-01-29T02:16:05.859Z,73.47
2018-01-29T02:18:33.445Z,72.47
2018-01-29T02:21:00.991Z,70.07
2018-01-29T02:23:28.674Z,67.63
2018-01-29T02:25:56.349Z,64.30
2018-01-29T02:28:23.881Z,69.03
2018-01-29T02:30:51.461Z,67.63
2018-01-29T02:33:19.148Z,66.70
2018-01-29T02:35:46.714Z,68.37
2018-01-29T02:38:14.269Z,71.60
2018-01-29T02:40:41.858Z,65.20
2018-01-29T02:43:09.498Z,69.90
2018-01-29T02:45:37.138Z,75.37
2018-01-29T02:48:04.950Z,71.33
2018-01-29T02:50:32.522Z,67.43
2018-01-29T02:53:00.196Z,70.80
2018-01-29T02:55:27.907Z,70.20
2018-01-29T02:57:55.630Z,69.60
2018-01-29T03:00:23.245Z,67.67
2018-01-29T03:02:50.811Z,68.43
2018-01-29T03:05:18.341Z,72.17
2018-01-29T03:07:46.194Z,75.30
2018-01-29T03:10:13.820Z,84.10
2018-01-29T03:12:41.629Z,106.30
2018-01-29T03:15:09.354Z,99.80
2018-01-29T03:17:36.898Z,113.67
2018-01-29T03:20:04.518Z,96.57
2018-01-29T03:22:32.271Z,95.57
2018-01-29T03:24:59.806Z,83.83
2018-01-29T03:27:27.466Z,74.03
2018-01-29T03:29:55.010Z,76.57
2018-01-29T03:32:22.773Z,72.37
2018-01-29T03:34:50.309Z,69.83
2018-01-29T03:37:17.850Z,64.87
2018-01-29T03:39:45.625Z,73.77
2018-01-29T03:42:13.161Z,84.80
2018-01-29T03:44:40.773Z,90.60
2018-01-29T03:47:08.310Z,83.30
2018-01-29T03:49:35.850Z,78.53
2018-01-29T03:52:03.616Z,72.87
2018-01-29T03:54:31.166Z,59.83
2018-01-29T03:56:58.742Z,52.40
2018-01-29T03:59:26.374Z,53.97
2018-01-29T04:01:53.990Z,54.93
2018-01-29T04:04:21.538Z,63.87
2018-01-29T04:06:49.074Z,64.83
2018-01-29T04:09:16.654Z,54.13
2018-01-29T04:11:44.186Z,57.40
2018-01-29T04:14:11.726Z,71.17
2018-01-29T04:16:39.327Z,73.20
2018-01-29T04:19:06.863Z,71.80
2018-01-29T04:21:34.450Z,70.83
2018-01-29T04:24:01.985Z,70.37
2018-01-29T04:26:29.555Z,68.73
2018-01-29T04:28:57.102Z,53.40
2018-01-29T04:31:24.634Z,52.03
2018-01-29T04:33:52.210Z,50.83
2018-01-29T04:36:19.832Z,46.93
2018-01-29T04:38:47.436Z,41.53
2018-01-29T04:41:15.071Z,42.10
2018-01-29T04:43:42.887Z,34.20
2018-01-29T04:46:13.362Z,46.83
2018-01-29T04:48:41.031Z,44.60
2018-01-29T04:51:08.562Z,40.50
2018-01-29T04:53:36.369Z,38.77
2018-01-29T04:56:03.939Z,38.70
2018-01-29T04:58:31.521Z,42.67
2018-01-29T05:00:59.054Z,42.40
2018-01-29T05:03:26.839Z,41.47
2018-01-29T05:05:54.462Z,43.17
2018-01-29T05:08:22.177Z,44.07
2018-01-29T05:10:49.754Z,55.57
2018-01-29T05:13:17.302Z,50.57
2018-01-29T05:15:44.870Z,50.00
2018-01-29T05:18:12.602Z,45.40
2018-01-29T05:20:40.134Z,40.40
2018-01-29T05:23:07.712Z,37.27
2018-01-29T05:25:35.500Z,38.77
2018-01-29T05:28:03.138Z,35.17
2018-01-29T05:30:30.839Z,41.30
2018-01-29T05:32:58.372Z,37.90
2018-01-29T05:35:30.810Z,37.47
2018-01-29T05:38:03.894Z,36.70
2018-01-29T05:40:31.484Z,42.73
2018-01-29T05:42:59.018Z,42.67
2018-01-29T05:45:26.569Z,58.10
2018-01-29T05:47:54.110Z,52.30
2018-01-29T05:50:21.654Z,54.13
2018-01-29T05:52:49.262Z,52.90
2018-01-29T05:55:16.811Z,55.57
2018-01-29T05:57:44.410Z,54.77
2018-01-29T06:00:12.007Z,62.20
2018-01-29T06:02:39.546Z,57.40
2018-01-29T06:05:07.183Z,63.30
2018-01-29T06:07:34.937Z,64.20
2018-01-29T06:10:02.505Z,60.37
2018-01-29T06:12:30.050Z,58.50
2018-01-29T06:14:57.584Z,53.13
2018-01-29T06:17:25.174Z,49.53
2018-01-29T06:19:52.715Z,48.03
2018-01-29T06:22:20.250Z,48.40
2018-01-29T06:24:47.851Z,44.20
2018-01-29T06:27:15.422Z,44.70
2018-01-29T06:29:43.062Z,48.43
2018-01-29T06:32:10.654Z,45.27
2018-01-29T06:34:38.432Z,50.13
2018-01-29T06:37:06.054Z,50.60
2018-01-29T06:39:33.597Z,51.90
2018-01-29T06:42:01.177Z,54.20
2018-01-29T06:44:28.718Z,61.13
2018-01-29T06:46:56.261Z,77.00
2018-01-29T06:49:23.807Z,69.30
2018-01-29T06:51:51.409Z,68.17
2018-01-29T06:54:19.174Z,66.17
2018-01-29T06:56:46.706Z,56.33
2018-01-29T06:59:14.246Z,61.77
2018-01-29T07:01:41.819Z,85.03
2018-01-29T07:04:09.362Z,124.70
2018-01-29T07:06:37.162Z,106.80
2018-01-29T07:09:04.738Z,151.97
2018-01-29T07:11:32.477Z,159.57
2018-01-29T07:14:00.035Z,94.43
2018-01-29T07:16:27.574Z,91.70
2018-01-29T07:18:55.352Z,60.50
2018-01-29T07:21:23.042Z,72.20
2018-01-29T07:23:50.802Z,93.37
2018-01-29T07:26:18.378Z,72.30
2018-01-29T07:28:46.535Z,44.30
2018-01-29T07:31:14.114Z,34.77
2018-01-29T07:33:41.657Z,32.23
2018-01-29T07:36:09.379Z,31.83
2018-01-29T07:38:37.197Z,34.47
2018-01-29T07:41:04.814Z,23.97
2018-01-29T07:43:32.727Z,25.40
2018-01-29T07:46:00.359Z,31.13
2018-01-29T07:48:27.907Z,30.70
2018-01-29T07:50:55.506Z,28.93
2018-01-29T07:53:23.306Z,34.77
2018-01-29T07:55:50.853Z,34.03
2018-01-29T07:58:18.428Z,21.80
2018-01-29T08:00:45.978Z,23.07
2018-01-29T08:03:13.777Z,13.80
2018-01-29T08:05:41.326Z,11.93
2018-01-29T08:08:08.894Z,12.03
2018-01-29T08:10:36.435Z,8.57
2018-01-29T08:13:04.248Z,11.10
2018-01-29T08:15:31.794Z,9.77
2018-01-29T08:17:59.383Z,9.63
2018-01-29T08:20:27.102Z,10.47
2018-01-29T08:22:54.638Z,7.60
2018-01-29T08:25:22.348Z,54.33
2018-01-29T08:27:50.158Z,9.97
2018-01-29T08:30:17.741Z,6.30
2018-01-29T08:32:45.345Z,7.00
2018-01-29T08:35:13.110Z,11.33
2018-01-29T08:37:40.701Z,7.47
2018-01-29T08:40:08.286Z,7.80
2018-01-29T08:42:35.978Z,12.60
2018-01-29T08:45:03.578Z,9.47
2018-01-29T08:47:31.185Z,43.63
2018-01-29T08:49:58.788Z,6.37
2018-01-29T08:52:26.328Z,6.90
2018-01-29T08:54:54.200Z,23.83
2018-01-29T08:57:21.879Z,62.10
2018-01-29T08:59:49.414Z,6.80
2018-01-29T09:02:17.002Z,6.93
2018-01-29T09:04:44.546Z,8.20
2018-01-29T09:07:12.342Z,10.13
2018-01-29T09:09:39.898Z,9.03
2018-01-29T09:12:07.446Z,9.20
2018-01-29T09:14:35.035Z,12.40
2018-01-29T09:17:02.582Z,20.97
2018-01-29T09:19:30.320Z,17.60
2018-01-29T09:21:58.037Z,27.03
2018-01-29T09:24:25.859Z,6.60
2018-01-29T09:26:53.657Z,6.30
2018-01-29T09:29:21.254Z,9.00
2018-01-29T09:31:48.782Z,5.93
2018-01-29T09:34:17.063Z,5.43
2018-01-29T09:36:44.598Z,6.47
2018-01-29T09:39:12.178Z,6.50
2018-01-29T09:41:39.961Z,5.83
2018-01-29T09:44:07.638Z,5.30
2018-01-29T09:46:35.443Z,7.83
2018-01-29T09:49:03.106Z,4.80
2018-01-29T09:51:30.802Z,4.90
2018-01-29T09:53:58.342Z,8.73
2018-01-29T09:56:25.894Z,5.10
2018-01-29T09:58:53.434Z,4.97
2018-01-29T10:01:20.974Z,5.43
2018-01-29T10:03:48.599Z,4.57
2018-01-29T10:06:16.131Z,7.80
2018-01-29T10:08:43.663Z,7.47
2018-01-29T10:11:11.308Z,11.87
2018-01-29T10:13:38.866Z,41.87
2018-01-29T10:16:06.544Z,5.13
2018-01-29T10:18:34.078Z,7.23
2018-01-29T10:21:01.779Z,6.70
2018-01-29T10:23:29.325Z,4.67
2018-01-29T10:25:56.912Z,4.93
2018-01-29T10:28:24.607Z,5.23
2018-01-29T10:30:52.144Z,5.67
2018-01-29T10:33:19.671Z,6.57
2018-01-29T10:35:47.276Z,5.47
2018-01-29T10:38:14.838Z,5.23
2018-01-29T10:40:42.378Z,8.90
2018-01-29T10:43:09.917Z,4.80
2018-01-29T10:45:38.569Z,3.97
2018-01-29T10:48:06.149Z,18.67
2018-01-29T10:50:33.762Z,8.70
2018-01-29T10:53:01.415Z,3.93
2018-01-29T10:55:29.022Z,4.73
2018-01-29T10:57:56.562Z,8.40
2018-01-29T11:00:24.117Z,4.87
2018-01-29T11:02:52.086Z,9.37
2018-01-29T11:05:19.622Z,10.30
2018-01-29T11:07:47.223Z,5.40
2018-01-29T11:10:14.953Z,5.73
2018-01-29T11:12:43.318Z,5.70
2018-01-29T11:15:10.983Z,4.93
2018-01-29T11:17:38.594Z,4.70
2018-01-29T11:20:06.245Z,4.53
2018-01-29T11:22:34.042Z,6.10
2018-01-29T11:25:01.579Z,6.20
2018-01-29T11:27:29.367Z,5.07
2018-01-29T11:29:56.950Z,6.27
2018-01-29T11:32:24.542Z,4.87
2018-01-29T11:34:52.151Z,6.87
2018-01-29T11:37:19.969Z,6.30
2018-01-29T11:39:48.998Z,4.77
2018-01-29T11:42:16.840Z,4.90
2018-01-29T11:44:44.369Z,4.40
2018-01-29T11:47:11.906Z,5.03
2018-01-29T11:49:39.434Z,5.60
2018-01-29T11:52:07.047Z,5.17
2018-01-29T11:54:34.769Z,5.90
2018-01-29T11:57:02.389Z,6.20
2018-01-29T11:59:29.930Z,4.27
2018-01-29T12:01:57.462Z,5.27
2018-01-29T12:04:25.075Z,5.47
2018-01-29T12:06:52.607Z,4.57
2018-01-29T12:09:20.154Z,3.73
2018-01-29T12:11:47.754Z,6.37
2018-01-29T12:14:15.412Z,4.50
2018-01-29T12:16:43.001Z,9.87
2018-01-29T12:19:15.695Z,10.93
2018-01-29T12:21:38.363Z,4.33
2018-01-29T12:24:05.930Z,5.20
2018-01-29T12:26:33.702Z,4.00
2018-01-29T12:29:01.282Z,4.90
2018-01-29T12:31:29.038Z,4.70
2018-01-29T12:33:56.590Z,4.60
2018-01-29T12:36:24.162Z,5.40
2018-01-29T12:38:51.754Z,7.10
2018-01-29T12:41:19.330Z,5.30
2018-01-29T12:43:46.876Z,4.20
2018-01-29T12:46:14.402Z,5.03
2018-01-29T12:48:41.938Z,3.70
2018-01-29T12:51:09.534Z,15.90
2018-01-29T12:53:37.206Z,6.37
2018-01-29T12:56:04.742Z,3.87
2018-01-29T12:58:32.265Z,4.00
2018-01-29T13:00:59.831Z,4.23
2018-01-29T13:03:27.366Z,3.80
2018-01-29T13:05:54.942Z,2.93
2018-01-29T13:08:22.470Z,3.70
2018-01-29T13:10:50.011Z,3.67
2018-01-29T13:13:17.607Z,5.50
2018-01-29T13:15:45.355Z,3.60
2018-01-29T13:18:12.974Z,3.57
2018-01-29T13:20:40.694Z,7.20
2018-01-29T13:23:08.352Z,14.90
2018-01-29T13:25:36.127Z,7.53
2018-01-29T13:28:09.586Z,41.20
2018-01-29T13:30:37.290Z,27.07
2018-01-29T13:33:04.882Z,25.40
2018-01-29T13:35:32.582Z,14.13
2018-01-29T13:38:00.140Z,27.90
2018-01-29T13:40:27.682Z,16.60
2018-01-29T13:42:55.279Z,30.33
2018-01-29T13:45:22.991Z,15.13
2018-01-29T13:47:50.513Z,7.73
2018-01-29T13:50:18.054Z,7.63
2018-01-29T13:52:45.618Z,7.33
2018-01-29T13:55:13.202Z,7.87
2018-01-29T13:57:40.734Z,4.47
2018-01-29T14:00:08.404Z,5.67
2018-01-29T14:02:35.969Z,8.10
2018-01-29T14:05:03.535Z,6.93
2018-01-29T14:07:31.241Z,12.83
2018-01-29T14:09:58.785Z,15.03
2018-01-29T14:12:26.384Z,6.20
2018-01-29T14:14:54.002Z,6.27
2018-01-29T14:17:21.539Z,19.80
2018-01-29T14:19:49.178Z,7.70
2018-01-29T14:22:16.957Z,11.70
2018-01-29T14:24:44.489Z,34.97
2018-01-29T14:27:12.097Z,10.33
2018-01-29T14:29:39.716Z,5.20
2018-01-29T14:32:07.321Z,16.57
2018-01-29T14:34:34.858Z,5.47
2018-01-29T14:37:02.396Z,10.77
2018-01-29T14:39:29.929Z,5.20
2018-01-29T14:41:57.472Z,12.90
2018-01-29T14:44:25.050Z,6.73
2018-01-29T14:46:52.602Z,5.63
2018-01-29T14:49:20.140Z,6.47
2018-01-29T14:51:47.694Z,7.87
2018-01-29T14:54:15.232Z,6.10
2018-01-29T14:56:42.897Z,6.23
2018-01-29T14:59:10.435Z,10.20
2018-01-29T15:01:37.981Z,12.33
2018-01-29T15:04:05.531Z,9.80
2018-01-29T15:06:33.074Z,11.63
2018-01-29T15:09:00.702Z,5.20
2018-01-29T15:11:28.234Z,5.80
2018-01-29T15:13:55.762Z,6.63
2018-01-29T15:16:23.309Z,7.50
2018-01-29T15:18:50.854Z,9.13
2018-01-29T15:21:18.434Z,9.37
2018-01-29T15:23:46.198Z,9.10
2018-01-29T15:26:13.885Z,17.67
2018-01-29T15:28:41.634Z,18.60
2018-01-29T15:31:09.170Z,20.33
2018-01-29T15:33:36.878Z,15.10
2018-01-29T15:36:04.600Z,60.63
2018-01-29T15:38:32.228Z,37.57
2018-01-29T15:40:59.819Z,37.53
2018-01-29T15:43:27.366Z,23.23
2018-01-29T15:45:55.010Z,17.93
2018-01-29T15:48:22.683Z,27.87
2018-01-29T15:50:50.406Z,22.93
2018-01-29T15:53:17.950Z,21.07
2018-01-29T15:55:45.655Z,28.87
2018-01-29T15:58:13.262Z,19.87
2018-01-29T16:00:40.797Z,12.87
2018-01-29T16:03:08.342Z,43.97
2018-01-29T16:05:35.890Z,31.53
2018-01-29T16:08:03.434Z,37.90
2018-01-29T16:10:31.026Z,18.57
2018-01-29T16:12:58.862Z,22.93
2018-01-29T16:15:26.414Z,28.17
2018-01-29T16:17:54.102Z,30.90
2018-01-29T16:20:21.898Z,38.57
2018-01-29T16:22:49.485Z,59.47
2018-01-29T16:25:17.231Z,157.80
2018-01-29T16:27:44.826Z,64.63
2018-01-29T16:30:12.421Z,108.43
2018-01-29T16:32:39.966Z,234.33
2018-01-29T16:35:07.518Z,151.30
2018-01-29T16:37:35.114Z,150.07
2018-01-29T16:40:02.666Z,99.40
2018-01-29T16:42:30.387Z,168.17
2018-01-29T16:44:57.938Z,287.40
2018-01-29T16:47:25.490Z,283.10
2018-01-29T16:49:53.030Z,106.10
2018-01-29T16:52:20.654Z,98.50
2018-01-29T16:54:48.370Z,119.27
2018-01-29T16:57:15.926Z,121.90
2018-01-29T16:59:43.614Z,110.53
2018-01-29T17:02:11.161Z,120.43
2018-01-29T17:04:38.742Z,119.33
2018-01-29T17:07:06.306Z,92.00
2018-01-29T17:09:33.838Z,80.93
2018-01-29T17:12:01.386Z,85.67
2018-01-29T17:14:29.019Z,92.33
2018-01-29T17:16:56.607Z,108.90
2018-01-29T17:19:24.245Z,122.43
2018-01-29T17:21:51.794Z,73.57
2018-01-29T17:24:19.335Z,51.57
2018-01-29T17:26:46.910Z,58.27
2018-01-29T17:29:14.499Z,51.53
2018-01-29T17:31:42.034Z,58.53
2018-01-29T17:34:09.570Z,87.10
2018-01-29T17:36:37.134Z,64.83
2018-01-29T17:39:04.768Z,70.47
2018-01-29T17:41:32.350Z,61.27
2018-01-29T17:43:59.893Z,68.57
2018-01-29T17:46:27.441Z,120.93
2018-01-29T17:48:55.010Z,136.60
2018-01-29T17:51:22.549Z,115.60
2018-01-29T17:53:50.142Z,168.40
2018-01-29T17:56:17.734Z,191.23
2018-01-29T17:58:45.270Z,116.90
2018-01-29T18:01:12.834Z,154.23
2018-01-29T18:03:40.403Z,123.60
2018-01-29T18:06:07.983Z,114.17
2018-01-29T18:08:35.554Z,111.27
2018-01-29T18:11:03.090Z,108.00
2018-01-29T18:13:30.652Z,95.63
2018-01-29T18:15:58.355Z,59.80
2018-01-29T18:18:26.263Z,68.67
2018-01-29T18:20:53.830Z,58.37
2018-01-29T18:23:21.508Z,58.37
2018-01-29T18:25:49.206Z,63.23
2018-01-29T18:28:16.770Z,66.37
2018-01-29T18:30:44.562Z,110.43
2018-01-29T18:33:12.195Z,78.57
2018-01-29T18:35:39.731Z,56.53
2018-01-29T18:38:07.274Z,89.07
2018-01-29T18:40:34.855Z,54.87
2018-01-29T18:43:02.436Z,58.33
2018-01-29T18:45:30.169Z,49.40
2018-01-29T18:47:57.938Z,52.70
2018-01-29T18:50:25.462Z,54.23
2018-01-29T18:52:52.999Z,41.77
2018-01-29T18:55:20.586Z,80.17
2018-01-29T18:57:48.267Z,121.20
2018-01-29T19:00:15.849Z,83.47
2018-01-29T19:02:43.395Z,80.47
2018-01-29T19:05:11.301Z,110.00
2018-01-29T19:07:39.280Z,106.00
2018-01-29T19:10:06.870Z,81.30
2018-01-29T19:12:34.800Z,72.57
2018-01-29T19:15:02.342Z,81.23
2018-01-29T19:17:30.678Z,71.33
2018-01-29T19:19:58.272Z,61.60
2018-01-29T19:22:26.578Z,66.07
2018-01-29T19:24:54.373Z,100.43
2018-01-29T19:27:22.181Z,126.00
2018-01-29T19:29:49.906Z,98.23
2018-01-29T19:32:17.678Z,84.57
2018-01-29T19:34:45.391Z,141.80
2018-01-29T19:37:12.967Z,132.27
2018-01-29T19:39:40.674Z,116.57
2018-01-29T19:42:08.210Z,119.17
2018-01-29T19:44:35.790Z,80.83
2018-01-29T19:47:03.322Z,61.53
2018-01-29T19:49:30.910Z,74.10
2018-01-29T19:51:58.452Z,90.37
2018-01-29T19:54:25.989Z,77.97
2018-01-29T19:56:53.574Z,105.57
2018-01-29T19:59:21.164Z,97.77
2018-01-29T20:01:48.719Z,79.63
2018-01-29T20:04:16.327Z,77.57
2018-01-29T20:06:43.975Z,113.97
2018-01-29T20:09:11.593Z,108.10
2018-01-29T20:11:39.138Z,61.63
2018-01-29T20:14:06.666Z,63.80
2018-01-29T20:16:34.338Z,70.80
2018-01-29T20:19:01.868Z,77.97
2018-01-29T20:21:29.462Z,95.27
2018-01-29T20:23:56.993Z,70.23
2018-01-29T20:26:24.530Z,79.97
2018-01-29T20:28:52.083Z,102.47
2018-01-29T20:31:19.843Z,77.00
2018-01-29T20:33:47.423Z,98.67
2018-01-29T20:36:14.961Z,61.73
2018-01-29T20:38:42.540Z,75.63
2018-01-29T20:41:10.214Z,94.40
2018-01-29T20:43:37.748Z,199.63
2018-01-29T20:46:05.550Z,336.53
2018-01-29T20:48:33.085Z,319.83
2018-01-29T20:51:00.677Z,221.23
2018-01-29T20:53:28.306Z,357.57
2018-01-29T20:55:55.848Z,274.80
2018-01-29T20:58:23.433Z,235.17
2018-01-29T21:00:50.994Z,165.37
2018-01-29T21:03:18.527Z,193.77
2018-01-29T21:05:46.081Z,270.30
2018-01-29T21:08:13.710Z,265.03
2018-01-29T21:10:41.294Z,95.27
2018-01-29T21:13:08.847Z,143.07
2018-01-29T21:15:36.435Z,103.10
2018-01-29T21:18:04.090Z,82.73
2018-01-29T21:20:31.799Z,98.37
2018-01-29T21:22:59.390Z,87.20
2018-01-29T21:25:27.101Z,69.90
2018-01-29T21:27:54.630Z,68.33
2018-01-29T21:30:22.333Z,71.70
2018-01-29T21:32:49.994Z,84.30
2018-01-29T21:35:17.578Z,72.30
2018-01-29T21:37:45.161Z,67.97
2018-01-29T21:40:12.827Z,73.97
2018-01-29T21:42:40.422Z,78.60
2018-01-29T21:45:07.958Z,64.00
2018-01-29T21:47:35.702Z,56.00
2018-01-29T21:50:03.247Z,45.43
2018-01-29T21:52:30.781Z,48.57
2018-01-29T21:54:58.386Z,49.30
2018-01-29T21:57:25.943Z,77.30
2018-01-29T21:59:53.786Z,65.03
2018-01-29T22:02:21.370Z,62.90
2018-01-29T22:04:49.021Z,79.97
2018-01-29T22:07:16.578Z,147.37
2018-01-29T22:09:44.118Z,149.97
2018-01-29T22:12:11.702Z,166.40
2018-01-29T22:14:39.233Z,82.33
2018-01-29T22:17:06.915Z,74.13
2018-01-29T22:19:34.514Z,105.00
2018-01-29T22:22:02.149Z,87.87
2018-01-29T22:24:29.729Z,74.50
2018-01-29T22:26:57.481Z,71.47
2018-01-29T22:29:25.030Z,48.93
2018-01-29T22:31:52.570Z,50.73
2018-01-29T22:34:20.106Z,52.17
2018-01-29T22:36:47.687Z,44.83
2018-01-29T22:39:15.225Z,50.47
2018-01-29T22:41:42.755Z,46.20
2018-01-29T22:44:10.334Z,43.37
2018-01-29T22:46:38.144Z,45.47
2018-01-29T22:49:05.678Z,45.90
2018-01-29T22:51:33.285Z,52.53
2018-01-29T22:54:00.816Z,52.77
2018-01-29T22:56:28.362Z,43.67
2018-01-29T22:58:56.019Z,36.73
2018-01-29T23:01:23.597Z,41.00
2018-01-29T23:03:51.346Z,41.50
2018-01-29T23:06:18.969Z,45.57
2018-01-29T23:08:46.505Z,42.80
2018-01-29T23:11:14.054Z,109.40
2018-01-29T23:13:41.594Z,56.90
2018-01-29T23:16:09.129Z,56.03
2018-01-29T23:18:36.855Z,50.70
2018-01-29T23:21:04.382Z,46.47
2018-01-29T23:23:31.922Z,59.63
2018-01-29T23:25:59.526Z,296.93
2018-01-29T23:28:27.226Z,217.53
2018-01-29T23:30:54.840Z,170.70
2018-01-29T23:33:22.377Z,522.53
2018-01-29T23:35:49.925Z,170.80
2018-01-29T23:38:17.470Z,128.77
2018-01-29T23:40:45.069Z,207.07
2018-01-29T23:43:12.660Z,53.17
2018-01-29T23:45:40.190Z,84.33
2018-01-29T23:48:07.789Z,53.23
2018-01-29T23:50:35.583Z,51.87
2018-01-29T23:53:03.113Z,57.10
2018-01-29T23:55:30.829Z,40.87
2018-01-29T23:57:58.355Z,43.80
